createdAt,value
2019-02-19T00:02:29.737Z,74.35
2019-02-19T00:05:00.867Z,70.67
2019-02-19T00:07:31.079Z,70.97
2019-02-19T00:10:01.023Z,71.77
2019-02-19T00:12:31.196Z,78.78
2019-02-19T00:15:07.999Z,79.05
2019-02-19T00:17:34.317Z,81.12
2019-02-19T00:20:05.025Z,80.12
2019-02-19T00:22:35.136Z,82.75
2019-02-19T00:25:05.908Z,84.03
2019-02-19T00:27:36.099Z,88.40
2019-02-19T00:30:06.599Z,83.25
2019-02-19T00:32:36.789Z,82.95
2019-02-19T00:35:10.047Z,84.03
2019-02-19T00:37:43.106Z,86.40
2019-02-19T00:40:13.121Z,84.95
2019-02-19T00:42:43.265Z,83.47
2019-02-19T00:45:16.697Z,82.12
2019-02-19T00:47:45.015Z,82.72
2019-02-19T00:50:15.140Z,81.85
2019-02-19T00:52:45.320Z,77.75
2019-02-19T00:55:15.381Z,80.60
2019-02-19T00:57:45.543Z,81.28
2019-02-19T01:00:15.893Z,79.47
2019-02-19T01:02:45.985Z,82.75
2019-02-19T01:05:16.011Z,82.65
2019-02-19T01:07:46.115Z,79.35
2019-02-19T01:10:16.083Z,81.47
2019-02-19T01:12:46.610Z,83.80
2019-02-19T01:15:25.053Z,89.13
2019-02-19T01:17:48.361Z,88.72
2019-02-19T01:20:18.477Z,88.72
2019-02-19T01:22:48.644Z,87.53
2019-02-19T01:25:18.723Z,84.62
2019-02-19T01:27:48.850Z,83.33
2019-02-19T01:30:18.918Z,80.70
2019-02-19T01:32:48.956Z,85.28
2019-02-19T01:35:18.905Z,87.33
2019-02-19T01:37:50.078Z,87.05
2019-02-19T01:40:20.172Z,85.53
2019-02-19T01:42:50.361Z,87.05
2019-02-19T01:45:20.389Z,82.30
2019-02-19T01:47:50.546Z,79.95
2019-02-19T01:50:20.623Z,80.50
2019-02-19T01:52:50.785Z,78.92
2019-02-19T01:55:20.818Z,79.58
2019-02-19T01:57:50.908Z,80.28
2019-02-19T02:00:20.871Z,82.17
2019-02-19T02:02:50.966Z,82.33
2019-02-19T02:05:21.071Z,83.17
2019-02-19T02:07:51.381Z,82.27
2019-02-19T02:10:21.448Z,81.63
2019-02-19T02:12:51.522Z,79.32
2019-02-19T02:15:21.575Z,76.15
2019-02-19T02:17:51.731Z,70.62
2019-02-19T02:20:21.752Z,64.35
2019-02-19T02:22:51.924Z,67.75
2019-02-19T02:25:21.863Z,67.60
2019-02-19T02:27:51.965Z,63.33
2019-02-19T02:30:22.002Z,69.05
2019-02-19T02:32:52.055Z,72.35
2019-02-19T02:35:22.155Z,73.28
2019-02-19T02:37:53.333Z,73.70
2019-02-19T02:40:23.238Z,76.80
2019-02-19T02:42:53.433Z,76.87
2019-02-19T02:45:23.510Z,75.87
2019-02-19T02:47:53.671Z,76.47
2019-02-19T02:50:23.786Z,84.75
2019-02-19T02:52:53.923Z,85.72
2019-02-19T02:55:24.054Z,83.50
2019-02-19T02:57:54.160Z,84.67
2019-02-19T03:00:24.307Z,86.00
2019-02-19T03:02:54.457Z,85.40
2019-02-19T03:05:25.369Z,81.50
2019-02-19T03:07:57.223Z,79.82
2019-02-19T03:10:27.388Z,85.65
2019-02-19T03:12:57.469Z,79.75
2019-02-19T03:15:27.484Z,79.87
2019-02-19T03:17:59.681Z,77.35
2019-02-19T03:20:29.677Z,79.37
2019-02-19T03:22:59.785Z,83.20
2019-02-19T03:25:29.945Z,84.15
2019-02-19T03:28:00.100Z,87.55
2019-02-19T03:30:30.078Z,88.70
2019-02-19T03:33:00.264Z,82.20
2019-02-19T03:35:30.324Z,86.35
2019-02-19T03:38:01.441Z,81.67
2019-02-19T03:40:31.489Z,79.87
2019-02-19T03:43:01.528Z,78.60
2019-02-19T03:45:31.620Z,77.27
2019-02-19T03:48:01.800Z,75.20
2019-02-19T03:50:31.892Z,69.85
2019-02-19T03:53:01.984Z,70.95
2019-02-19T03:55:31.928Z,70.20
2019-02-19T03:58:02.032Z,67.60
2019-02-19T04:00:32.194Z,65.97
2019-02-19T04:03:02.279Z,64.32
2019-02-19T04:05:32.408Z,62.50
2019-02-19T04:08:02.443Z,61.45
2019-02-19T04:10:32.600Z,62.78
2019-02-19T04:13:02.680Z,58.85
2019-02-19T04:15:32.761Z,58.58
2019-02-19T04:18:02.800Z,56.25
2019-02-19T04:20:32.911Z,55.85
2019-02-19T04:23:02.964Z,56.28
2019-02-19T04:25:32.966Z,54.67
2019-02-19T04:28:04.633Z,50.80
2019-02-19T04:30:34.735Z,49.77
2019-02-19T04:33:04.829Z,48.55
2019-02-19T04:35:34.956Z,44.42
2019-02-19T04:38:05.934Z,43.35
2019-02-19T04:40:36.048Z,44.25
2019-02-19T04:43:06.146Z,44.93
2019-02-19T04:45:36.245Z,44.40
2019-02-19T04:48:06.182Z,44.67
2019-02-19T04:50:36.344Z,45.00
2019-02-19T04:53:06.193Z,45.38
2019-02-19T04:55:36.287Z,52.65
2019-02-19T04:58:06.410Z,45.43
2019-02-19T05:00:36.493Z,43.95
2019-02-19T05:03:06.584Z,56.55
2019-02-19T05:05:36.720Z,64.30
2019-02-19T05:08:06.716Z,62.62
2019-02-19T05:10:36.809Z,52.15
2019-02-19T05:13:06.905Z,47.10
2019-02-19T05:15:37.027Z,48.45
2019-02-19T05:18:07.105Z,46.33
2019-02-19T05:20:37.271Z,44.93
2019-02-19T05:23:07.581Z,44.33
2019-02-19T05:25:37.686Z,45.03
2019-02-19T05:28:07.778Z,45.80
2019-02-19T05:30:39.063Z,45.92
2019-02-19T05:33:09.172Z,61.13
2019-02-19T05:35:39.350Z,56.05
2019-02-19T05:38:10.438Z,52.08
2019-02-19T05:40:40.589Z,50.45
2019-02-19T05:43:10.702Z,49.13
2019-02-19T05:45:40.857Z,48.52
2019-02-19T05:48:12.670Z,47.03
2019-02-19T05:50:42.996Z,47.20
2019-02-19T05:53:13.024Z,54.93
2019-02-19T05:55:43.190Z,73.67
2019-02-19T05:58:13.326Z,82.47
2019-02-19T06:00:43.486Z,80.60
2019-02-19T06:03:13.843Z,67.80
2019-02-19T06:05:44.240Z,54.83
2019-02-19T06:08:14.528Z,51.25
2019-02-19T06:10:44.745Z,47.67
2019-02-19T06:13:15.451Z,51.48
2019-02-19T06:15:45.701Z,61.05
2019-02-19T06:18:15.821Z,62.30
2019-02-19T06:20:46.019Z,61.35
2019-02-19T06:23:15.994Z,61.70
2019-02-19T06:25:46.074Z,60.35
2019-02-19T06:28:16.165Z,58.80
2019-02-19T06:30:46.324Z,54.80
2019-02-19T06:33:16.480Z,48.73
2019-02-19T06:35:46.599Z,47.40
2019-02-19T06:38:23.707Z,48.35
2019-02-19T06:40:53.850Z,46.40
2019-02-19T06:43:23.927Z,44.83
2019-02-19T06:45:54.013Z,42.93
2019-02-19T06:48:24.073Z,43.05
2019-02-19T06:50:54.227Z,41.77
2019-02-19T06:53:24.263Z,46.68
2019-02-19T06:55:54.443Z,53.35
2019-02-19T06:58:24.395Z,52.93
2019-02-19T07:00:54.481Z,55.48
2019-02-19T07:03:33.173Z,60.20
2019-02-19T07:06:03.512Z,58.55
2019-02-19T07:08:33.851Z,58.05
2019-02-19T07:11:04.053Z,54.30
2019-02-19T07:13:34.307Z,49.65
2019-02-19T07:16:04.539Z,48.80
2019-02-19T07:18:34.842Z,48.78
2019-02-19T07:21:05.034Z,49.23
2019-02-19T07:23:35.112Z,50.75
2019-02-19T07:26:05.185Z,50.88
2019-02-19T07:28:35.672Z,51.05
2019-02-19T07:31:06.046Z,51.55
2019-02-19T07:33:36.181Z,53.00
2019-02-19T07:36:06.350Z,65.03
2019-02-19T07:38:38.081Z,69.62
2019-02-19T07:41:08.183Z,76.72
2019-02-19T07:43:38.367Z,73.28
2019-02-19T07:46:08.483Z,73.42
2019-02-19T07:48:38.581Z,73.70
2019-02-19T07:51:09.717Z,71.05
2019-02-19T07:53:39.863Z,67.35
2019-02-19T07:56:10.077Z,68.80
2019-02-19T07:58:47.836Z,68.30
2019-02-19T08:01:18.151Z,61.33
2019-02-19T08:03:48.276Z,58.80
2019-02-19T08:06:18.207Z,53.23
2019-02-19T08:08:49.889Z,54.90
2019-02-19T08:11:20.065Z,50.88
2019-02-19T08:13:59.212Z,50.30
2019-02-19T08:16:29.381Z,44.38
2019-02-19T08:19:01.112Z,43.05
2019-02-19T08:21:41.226Z,45.00
2019-02-19T08:24:11.322Z,43.68
2019-02-19T08:26:41.431Z,42.38
2019-02-19T08:29:16.403Z,41.37
2019-02-19T08:31:46.666Z,39.88
2019-02-19T08:34:16.749Z,39.23
2019-02-19T08:36:47.048Z,37.83
2019-02-19T08:39:17.149Z,37.42
2019-02-19T08:41:47.469Z,34.15
2019-02-19T08:44:17.794Z,34.78
2019-02-19T08:46:47.889Z,33.78
2019-02-19T08:49:18.226Z,34.08
2019-02-19T08:51:55.926Z,31.27
2019-02-19T08:54:21.005Z,31.75
2019-02-19T08:56:51.306Z,30.27
2019-02-19T08:59:21.359Z,29.90
2019-02-19T09:01:51.703Z,30.77
2019-02-19T09:04:21.831Z,29.27
2019-02-19T09:06:51.914Z,29.72
2019-02-19T09:09:22.075Z,29.75
2019-02-19T09:11:52.261Z,29.77
2019-02-19T09:14:22.516Z,28.77
2019-02-19T09:16:52.446Z,28.15
2019-02-19T09:22:38.035Z,29.00
2019-02-19T09:25:08.719Z,29.05
2019-02-19T09:27:38.651Z,27.67
2019-02-19T09:30:11.691Z,26.42
2019-02-19T09:32:41.815Z,28.12
2019-02-19T09:35:11.950Z,26.80
2019-02-19T09:37:42.236Z,27.52
2019-02-19T09:40:12.463Z,26.27
2019-02-19T09:42:42.444Z,27.62
2019-02-19T09:45:12.680Z,26.55
2019-02-19T09:47:42.740Z,28.32
2019-02-19T09:50:12.860Z,26.30
2019-02-19T09:52:42.873Z,27.50
2019-02-19T09:55:15.656Z,26.00
2019-02-19T09:57:45.872Z,27.00
2019-02-19T10:00:17.106Z,25.55
2019-02-19T10:02:47.200Z,26.07
2019-02-19T10:05:17.216Z,27.25
2019-02-19T10:07:47.328Z,27.07
2019-02-19T10:10:23.407Z,27.73
2019-02-19T10:12:53.443Z,27.35
2019-02-19T10:15:23.429Z,26.93
2019-02-19T10:17:56.445Z,26.93
2019-02-19T10:20:26.535Z,26.00
2019-02-19T10:22:56.571Z,27.10
2019-02-19T10:25:26.621Z,27.93
2019-02-19T10:27:56.639Z,26.37
2019-02-19T10:30:26.709Z,27.75
2019-02-19T10:32:56.661Z,28.05
2019-02-19T10:35:26.830Z,26.55
2019-02-19T10:37:56.919Z,28.50
2019-02-19T10:40:27.042Z,29.42
2019-02-19T10:42:57.043Z,30.25
2019-02-19T10:45:27.515Z,29.25
2019-02-19T10:47:57.607Z,28.38
2019-02-19T10:50:27.771Z,28.20
2019-02-19T10:52:57.948Z,24.75
2019-02-19T10:55:27.945Z,22.40
2019-02-19T10:57:57.974Z,23.15
2019-02-19T11:00:28.198Z,21.75
2019-02-19T11:02:58.269Z,23.38
2019-02-19T11:05:28.347Z,24.47
2019-02-19T11:07:59.542Z,24.37
2019-02-19T11:10:29.783Z,23.77
2019-02-19T11:12:59.865Z,22.35
2019-02-19T11:15:29.948Z,23.22
2019-02-19T11:18:00.031Z,24.20
2019-02-19T11:20:30.203Z,24.77
2019-02-19T11:23:01.499Z,24.27
2019-02-19T11:25:31.767Z,22.32
2019-02-19T11:28:06.004Z,22.98
2019-02-19T11:30:36.132Z,21.37
2019-02-19T11:33:07.932Z,21.65
2019-02-19T11:35:51.637Z,21.12
2019-02-19T11:38:26.522Z,21.62
2019-02-19T11:40:56.886Z,22.32
2019-02-19T11:43:26.938Z,21.75
2019-02-19T11:45:57.559Z,22.67
2019-02-19T11:48:27.614Z,24.02
2019-02-19T11:51:01.646Z,25.02
2019-02-19T11:53:36.183Z,24.67
2019-02-19T11:56:11.161Z,24.27
2019-02-19T11:58:41.298Z,22.90
2019-02-19T12:01:11.375Z,24.40
2019-02-19T12:03:41.404Z,25.57
2019-02-19T12:06:11.391Z,25.52
2019-02-19T12:08:41.370Z,25.12
2019-02-19T12:11:11.390Z,24.37
2019-02-19T12:13:43.087Z,22.65
2019-02-19T12:16:13.146Z,20.68
2019-02-19T12:18:46.256Z,20.52
2019-02-19T12:21:15.003Z,17.42
2019-02-19T12:23:45.089Z,16.40
2019-02-19T12:26:15.161Z,15.03
2019-02-19T12:28:45.252Z,14.23
2019-02-19T12:31:15.299Z,14.47
2019-02-19T12:33:45.370Z,17.07
2019-02-19T12:36:15.321Z,15.35
2019-02-19T12:38:45.313Z,13.50
2019-02-19T12:41:15.327Z,16.25
2019-02-19T12:43:45.489Z,13.95
2019-02-19T12:46:15.523Z,13.88
2019-02-19T12:48:54.036Z,13.72
2019-02-19T12:51:26.244Z,15.08
2019-02-19T12:53:52.140Z,14.33
2019-02-19T12:56:22.191Z,17.05
2019-02-19T12:58:52.644Z,16.52
2019-02-19T13:01:27.082Z,15.43
2019-02-19T13:03:57.272Z,15.63
2019-02-19T13:06:27.433Z,14.85
2019-02-19T13:08:57.756Z,15.53
2019-02-19T13:11:27.779Z,13.83
2019-02-19T13:13:57.859Z,15.70
2019-02-19T13:16:28.018Z,15.50
2019-02-19T13:19:03.503Z,15.65
2019-02-19T13:21:29.694Z,15.53
2019-02-19T13:23:59.731Z,16.02
2019-02-19T13:26:30.271Z,16.12
2019-02-19T13:29:01.130Z,16.97
2019-02-19T13:31:31.269Z,16.93
2019-02-19T13:34:01.395Z,18.12
2019-02-19T13:36:31.507Z,16.52
2019-02-19T13:39:01.733Z,17.80
2019-02-19T13:41:33.309Z,17.75
2019-02-19T13:44:03.271Z,18.17
2019-02-19T13:46:33.366Z,19.15
2019-02-19T13:49:12.021Z,17.60
2019-02-19T13:51:37.961Z,18.73
2019-02-19T13:54:10.802Z,18.92
2019-02-19T13:56:40.972Z,17.90
2019-02-19T13:59:11.319Z,18.82
2019-02-19T14:01:41.453Z,17.55
2019-02-19T14:04:11.497Z,17.37
2019-02-19T14:06:41.614Z,17.02
2019-02-19T14:09:11.641Z,17.87
2019-02-19T14:11:41.704Z,18.10
2019-02-19T14:14:16.288Z,17.15
2019-02-19T14:16:48.056Z,18.35
2019-02-19T14:19:21.558Z,18.67
2019-02-19T14:22:01.758Z,18.70
2019-02-19T14:24:48.425Z,19.05
2019-02-19T14:27:36.512Z,20.27
2019-02-19T14:30:11.096Z,21.80
2019-02-19T14:33:00.749Z,20.65
2019-02-19T14:35:48.566Z,21.73
2019-02-19T14:38:36.455Z,20.08
2019-02-19T14:41:17.213Z,22.60
2019-02-19T14:43:58.306Z,26.00
2019-02-19T14:46:29.865Z,21.50
2019-02-19T14:49:07.631Z,20.77
2019-02-19T14:51:45.116Z,21.10
2019-02-19T14:54:22.797Z,22.58
2019-02-19T14:57:04.649Z,22.32
2019-02-19T14:59:43.238Z,24.30
2019-02-19T15:02:27.273Z,25.25
2019-02-19T15:07:32.493Z,25.48
2019-02-19T15:10:07.140Z,26.23
2019-02-19T15:12:38.836Z,24.65
2019-02-19T15:15:27.984Z,22.82
2019-02-19T15:17:59.678Z,22.87
2019-02-19T15:20:40.561Z,23.45
2019-02-19T15:23:15.181Z,22.25
2019-02-19T15:26:06.121Z,25.35
2019-02-19T15:28:44.225Z,24.60
2019-02-19T15:31:32.745Z,25.30
2019-02-19T15:34:04.442Z,27.75
2019-02-19T15:36:40.278Z,28.32
2019-02-19T15:39:31.428Z,30.32
2019-02-19T15:42:12.321Z,26.57
2019-02-19T15:44:46.874Z,24.40
2019-02-19T15:47:27.811Z,23.12
2019-02-19T15:50:11.724Z,29.27
2019-02-19T15:52:43.380Z,22.27
2019-02-19T15:55:20.597Z,23.15
2019-02-19T15:57:55.101Z,24.95
2019-02-19T16:00:29.626Z,23.65
2019-02-19T16:03:04.415Z,23.52
2019-02-19T16:05:54.301Z,24.67
2019-02-19T16:08:38.041Z,25.65
2019-02-19T16:11:09.726Z,27.87
2019-02-19T16:13:53.477Z,27.27
2019-02-19T16:16:25.097Z,29.52
2019-02-19T16:18:59.734Z,33.75
2019-02-19T16:21:34.378Z,35.88
2019-02-19T16:24:12.458Z,35.95
2019-02-19T16:26:53.108Z,29.48
2019-02-19T16:29:27.608Z,27.98
2019-02-19T16:32:01.837Z,26.85
2019-02-19T16:34:42.597Z,20.92
2019-02-19T16:37:20.144Z,22.90
2019-02-19T16:40:06.656Z,21.05
2019-02-19T16:42:38.324Z,19.00
2019-02-19T16:45:22.351Z,19.07
2019-02-19T16:48:05.647Z,19.98
2019-02-19T16:50:46.636Z,17.62
2019-02-19T16:53:21.130Z,17.20
2019-02-19T16:56:13.482Z,17.05
2019-02-19T16:58:54.032Z,16.60
2019-02-19T17:01:28.997Z,16.60
2019-02-19T17:04:03.454Z,15.35
2019-02-19T17:06:47.411Z,15.15
2019-02-19T17:09:26.748Z,15.18
2019-02-19T17:11:58.518Z,14.10
2019-02-19T17:14:37.410Z,14.30
2019-02-19T17:17:19.993Z,15.05
2019-02-19T17:20:00.890Z,16.20
2019-02-19T17:22:39.989Z,15.98
2019-02-19T17:25:11.603Z,17.23
2019-02-19T17:27:58.161Z,17.05
2019-02-19T17:30:41.787Z,17.10
2019-02-19T17:33:16.133Z,18.12
2019-02-19T17:35:56.445Z,19.87
2019-02-19T17:38:28.101Z,19.02
2019-02-19T17:43:54.577Z,18.12
2019-02-19T17:46:35.181Z,15.32
2019-02-19T17:49:09.881Z,14.05
2019-02-19T17:51:45.201Z,12.75
2019-02-19T17:54:32.307Z,11.57
2019-02-19T17:57:09.931Z,12.07
2019-02-19T17:59:49.754Z,11.60
2019-02-19T18:02:31.679Z,9.13
2019-02-19T18:05:27.548Z,8.73
2019-02-19T18:08:07.931Z,9.30
2019-02-19T18:10:39.708Z,6.90
2019-02-19T18:13:14.277Z,7.35
2019-02-19T18:15:53.059Z,6.67
2019-02-19T18:18:39.397Z,8.60
2019-02-19T18:21:09.582Z,8.38
2019-02-19T18:23:39.606Z,8.68
2019-02-19T18:26:12.697Z,9.10
2019-02-19T18:28:42.706Z,9.15
2019-02-19T18:31:12.803Z,8.00
2019-02-19T18:33:42.929Z,7.83
2019-02-19T18:36:13.772Z,8.65
2019-02-19T18:38:49.411Z,8.70
2019-02-19T18:41:19.994Z,9.40
2019-02-19T18:43:50.322Z,9.25
2019-02-19T18:46:20.592Z,9.53
2019-02-19T18:48:50.727Z,9.40
2019-02-19T18:51:22.438Z,9.75
2019-02-19T18:53:52.575Z,10.32
2019-02-19T18:56:22.650Z,9.78
2019-02-19T18:58:52.702Z,10.03
2019-02-19T19:01:22.982Z,10.40
2019-02-19T19:04:02.413Z,9.40
2019-02-19T19:06:37.024Z,10.35
2019-02-19T19:09:08.131Z,10.35
2019-02-19T19:11:38.512Z,10.32
2019-02-19T19:14:08.582Z,10.43
2019-02-19T19:16:38.694Z,10.58
2019-02-19T19:19:08.812Z,11.05
2019-02-19T19:21:38.888Z,11.73
2019-02-19T19:24:09.007Z,12.95
2019-02-19T19:26:39.085Z,12.58
2019-02-19T19:29:10.674Z,13.18
2019-02-19T19:31:40.852Z,14.35
2019-02-19T19:34:11.307Z,15.00
2019-02-19T19:36:42.888Z,15.38
2019-02-19T19:39:16.224Z,14.68
2019-02-19T19:41:46.336Z,15.00
2019-02-19T19:44:16.656Z,14.87
2019-02-19T19:46:46.750Z,14.75
2019-02-19T19:49:16.993Z,15.05
2019-02-19T19:51:47.558Z,14.30
2019-02-19T19:54:18.028Z,16.07
2019-02-19T19:56:51.106Z,15.98
2019-02-19T19:59:21.285Z,16.85
2019-02-19T20:02:05.037Z,17.52
2019-02-19T20:04:35.209Z,16.55
2019-02-19T20:07:05.325Z,18.00
2019-02-19T20:09:35.523Z,18.15
2019-02-19T20:12:05.696Z,17.67
2019-02-19T20:14:37.363Z,17.73
2019-02-19T20:17:07.459Z,17.52
2019-02-19T20:19:37.719Z,18.90
2019-02-19T20:22:07.753Z,21.12
2019-02-19T20:24:38.001Z,21.77
2019-02-19T20:27:08.021Z,21.95
2019-02-19T20:29:38.194Z,21.25
2019-02-19T20:32:08.294Z,19.42
2019-02-19T20:34:38.802Z,21.15
2019-02-19T20:37:08.891Z,20.92
2019-02-19T20:39:39.156Z,22.55
2019-02-19T20:42:09.338Z,23.18
2019-02-19T20:44:39.786Z,22.32
2019-02-19T20:47:09.884Z,22.32
2019-02-19T20:49:40.041Z,22.80
2019-02-19T20:52:10.128Z,22.65
2019-02-19T20:54:40.342Z,23.42
2019-02-19T20:57:10.440Z,23.70
2019-02-19T20:59:40.817Z,23.40
2019-02-19T21:02:10.959Z,22.80
2019-02-19T21:04:41.252Z,22.82
2019-02-19T21:07:11.364Z,22.15
2019-02-19T21:09:44.100Z,23.50
2019-02-19T21:12:13.428Z,22.67
2019-02-19T21:14:43.859Z,24.70
2019-02-19T21:17:13.941Z,23.87
2019-02-19T21:19:44.129Z,22.98
2019-02-19T21:22:14.272Z,22.13
2019-02-19T21:24:44.444Z,22.55
2019-02-19T21:27:18.427Z,21.97
2019-02-19T21:29:48.787Z,22.77
2019-02-19T21:32:18.912Z,20.90
2019-02-19T21:34:49.146Z,20.48
2019-02-19T21:37:19.273Z,21.77
2019-02-19T21:39:49.394Z,22.27
2019-02-19T21:42:19.578Z,21.75
2019-02-19T21:44:51.361Z,22.48
2019-02-19T21:47:21.607Z,21.68
2019-02-19T21:49:51.917Z,23.80
2019-02-19T21:52:21.968Z,22.67
2019-02-19T21:54:52.325Z,24.77
2019-02-19T21:57:22.427Z,25.55
2019-02-19T21:59:52.786Z,26.90
2019-02-19T22:02:23.223Z,27.00
2019-02-19T22:04:53.612Z,26.55
2019-02-19T22:07:23.962Z,24.55
2019-02-19T22:09:54.345Z,24.45
2019-02-19T22:12:24.569Z,24.05
2019-02-19T22:14:54.748Z,23.65
2019-02-19T22:17:24.813Z,25.37
2019-02-19T22:20:11.183Z,25.37
2019-02-19T22:22:46.611Z,26.77
2019-02-19T22:25:16.784Z,26.23
2019-02-19T22:27:46.834Z,25.88
2019-02-19T22:30:17.073Z,26.87
2019-02-19T22:32:47.298Z,25.52
2019-02-19T22:35:17.460Z,25.27
2019-02-19T22:37:47.586Z,26.55
2019-02-19T22:40:19.281Z,26.82
2019-02-19T22:42:52.666Z,26.40
2019-02-19T22:45:22.840Z,25.37
2019-02-19T22:47:53.620Z,24.57
2019-02-19T22:50:24.151Z,22.73
2019-02-19T22:52:54.293Z,24.32
2019-02-19T22:55:45.210Z,25.37
2019-02-19T22:58:15.344Z,24.43
2019-02-19T23:00:49.141Z,25.95
2019-02-19T23:03:22.314Z,26.05
2019-02-19T23:05:52.483Z,26.48
2019-02-19T23:08:22.464Z,26.25
2019-02-19T23:10:52.741Z,25.68
2019-02-19T23:13:24.357Z,27.60
2019-02-19T23:15:54.615Z,26.87
2019-02-19T23:18:24.765Z,26.40
2019-02-19T23:20:54.929Z,27.22
2019-02-19T23:23:25.049Z,26.87
2019-02-19T23:25:55.230Z,26.42
2019-02-19T23:28:25.157Z,27.45
2019-02-19T23:30:55.205Z,27.05
2019-02-19T23:33:25.425Z,25.55
2019-02-19T23:35:57.051Z,24.90
2019-02-19T23:38:27.171Z,23.87
2019-02-19T23:40:57.174Z,23.45
2019-02-19T23:43:27.521Z,22.73
2019-02-19T23:45:57.615Z,22.32
2019-02-19T23:48:27.751Z,21.27
2019-02-19T23:50:57.911Z,19.98
2019-02-19T23:53:28.058Z,20.88
2019-02-19T23:55:58.131Z,20.30
2019-02-19T23:58:28.369Z,19.77
